Time;durP1;ratioP1;P1;durP2;ratioP2;P2;SDS_P1;SDS_P2;PMS_P1;PMS_P2;Temp;Humidity;BMP_temperature;BMP_pressure;BME280_temperature;BME280_humidity;BME280_pressure;Samples;Min_cycle;Max_cycle;Signal;HPM_P1;HPM_P2
2022/04/18 00:01:48;;;;;;;16.30;13.68;;;8.00;86.10;;;;;;4915302;29;20557;-89
2022/04/18 00:04:14;;;;;;;16.65;10.68;;;8.00;87.50;;;;;;4916348;29;20066;-89
2022/04/18 00:06:39;;;;;;;17.52;10.60;;;7.90;86.40;;;;;;4915273;29;20067;-90
2022/04/18 00:09:05;;;;;;;16.23;10.90;;;7.90;86.50;;;;;;4914768;29;20031;-90
2022/04/18 00:11:32;;;;;;;16.73;10.43;;;7.80;87.60;;;;;;4915298;29;20490;-90
2022/04/18 00:13:57;;;;;;;15.40;12.10;;;7.80;87.80;;;;;;4907514;29;20064;-89
2022/04/18 00:16:23;;;;;;;16.73;12.00;;;7.80;87.70;;;;;;4932652;29;20413;-89
2022/04/18 00:18:49;;;;;;;17.00;12.73;;;7.70;87.30;;;;;;4932017;29;20048;-90
2022/04/18 00:21:14;;;;;;;16.27;14.40;;;7.70;88.00;;;;;;4927741;29;20054;-90
2022/04/18 00:23:40;;;;;;;19.02;13.18;;;7.80;88.60;;;;;;4932488;29;20071;-89
2022/04/18 00:26:06;;;;;;;16.55;13.93;;;7.70;87.80;;;;;;4923820;29;20052;-89
2022/04/18 00:28:31;;;;;;;15.82;11.18;;;7.70;89.50;;;;;;4941484;29;20393;-90
2022/04/18 00:31:00;;;;;;;17.42;11.85;;;7.70;89.10;;;;;;4931573;29;20191;-90
2022/04/18 00:33:26;;;;;;;20.55;11.73;;;7.70;88.90;;;;;;4950793;29;20047;-90
2022/04/18 00:35:52;;;;;;;16.77;14.10;;;7.60;90.00;;;;;;4933578;29;20058;-90
2022/04/18 00:38:18;;;;;;;15.63;11.40;;;7.60;90.30;;;;;;4935628;29;20203;-90
2022/04/18 00:40:44;;;;;;;16.45;11.43;;;7.60;89.40;;;;;;4931757;29;20058;-91
2022/04/18 00:43:10;;;;;;;16.42;13.32;;;7.60;89.50;;;;;;4932141;29;20035;-89
2022/04/18 00:45:35;;;;;;;18.05;11.63;;;7.60;91.10;;;;;;4932433;29;20047;-90
2022/04/18 00:48:02;;;;;;;16.20;13.95;;;7.60;90.10;;;;;;4931825;29;20050;-89
2022/04/18 00:50:32;;;;;;;15.35;11.52;;;7.60;89.80;;;;;;4932283;29;20059;-90
2022/04/18 00:52:58;;;;;;;17.98;12.02;;;7.50;90.40;;;;;;4931928;29;20222;-89
2022/04/18 00:55:26;;;;;;;19.15;12.82;;;7.50;90.30;;;;;;4915766;29;20261;-90
2022/04/18 00:57:54;;;;;;;15.70;11.05;;;7.50;91.30;;;;;;4931772;29;20047;-90
2022/04/18 01:00:20;;;;;;;18.88;14.40;;;7.40;91.00;;;;;;4932571;29;20112;-90
2022/04/18 01:02:45;;;;;;;16.80;11.65;;;7.50;91.20;;;;;;4931991;29;20048;-90
2022/04/18 01:05:11;;;;;;;18.05;11.52;;;7.40;90.80;;;;;;4931855;29;20051;-89
2022/04/18 01:07:38;;;;;;;19.48;11.27;;;7.40;90.70;;;;;;4932357;29;20062;-89
2022/04/18 01:10:05;;;;;;;19.02;11.73;;;7.30;90.80;;;;;;4914970;29;20562;-90
2022/04/18 01:12:30;;;;;;;18.20;12.38;;;7.30;90.90;;;;;;4949246;29;20496;-90
2022/04/18 01:14:56;;;;;;;17.73;14.35;;;7.30;91.40;;;;;;4932367;29;20066;-89
2022/04/18 01:17:21;;;;;;;16.67;12.07;;;7.30;92.10;;;;;;4932510;29;20048;-90
2022/04/18 01:19:47;;;;;;;19.65;11.27;;;7.30;92.10;;;;;;4931046;29;20378;-90
2022/04/18 01:22:13;;;;;;;17.88;11.50;;;7.20;91.80;;;;;;4931871;29;20055;-90
2022/04/18 01:30:19;;;;;;;17.80;12.13;;;7.20;92.80;;;;;;4873482;29;20505;-91
2022/04/18 01:32:44;;;;;;;17.63;11.25;;;7.10;93.50;;;;;;4872516;29;20052;-90
2022/04/18 01:35:10;;;;;;;18.45;12.18;;;7.00;93.70;;;;;;4891491;29;20059;-90
2022/04/18 01:37:37;;;;;;;18.05;12.23;;;7.00;94.00;;;;;;4901888;29;20077;-89
2022/04/18 01:40:04;;;;;;;18.63;13.40;;;7.00;94.20;;;;;;4908534;29;20048;-90
2022/04/18 01:42:29;;;;;;;19.48;13.60;;;7.00;94.60;;;;;;4906465;29;20036;-89
2022/04/18 01:44:56;;;;;;;20.58;13.48;;;7.00;94.50;;;;;;4898569;29;20141;-90
2022/04/18 01:47:22;;;;;;;21.00;13.48;;;7.00;94.30;;;;;;4897233;29;20044;-90
2022/04/18 01:49:47;;;;;;;18.95;12.77;;;7.00;94.40;;;;;;4900263;29;20558;-90
2022/04/18 01:52:12;;;;;;;20.73;13.10;;;6.90;94.50;;;;;;4879964;29;20056;-90
2022/04/18 01:54:38;;;;;;;19.13;16.00;;;6.90;94.50;;;;;;4880870;29;20530;-90
2022/04/18 01:57:04;;;;;;;20.92;13.95;;;7.00;95.50;;;;;;4895912;29;20490;-90
2022/04/18 01:59:30;;;;;;;20.35;13.23;;;6.90;95.50;;;;;;4903816;29;20052;-89
2022/04/18 02:01:55;;;;;;;20.90;13.80;;;6.90;95.80;;;;;;4902045;29;20052;-90
2022/04/18 02:04:21;;;;;;;22.88;13.40;;;6.80;96.90;;;;;;4929069;29;20065;-90
2022/04/18 02:06:46;;;;;;;19.48;12.65;;;6.80;96.20;;;;;;4953815;29;20039;-90
2022/04/18 02:09:12;;;;;;;23.92;13.57;;;6.80;96.60;;;;;;4970926;28;20028;-90
2022/04/18 02:11:38;;;;;;;19.20;13.93;;;6.80;96.80;;;;;;4939010;29;20043;-90
2022/04/18 02:14:03;;;;;;;20.33;13.10;;;6.80;96.90;;;;;;4920309;29;20135;-90
2022/04/18 02:16:29;;;;;;;18.85;12.93;;;6.70;96.90;;;;;;4934336;29;20110;-90
2022/04/18 02:18:55;;;;;;;22.92;14.77;;;6.70;97.00;;;;;;4933707;29;20509;-89
2022/04/18 02:21:21;;;;;;;20.48;13.70;;;6.70;97.10;;;;;;4935109;29;20047;-89
2022/04/18 02:23:46;;;;;;;18.85;13.55;;;6.70;97.10;;;;;;4942218;29;20055;-90
2022/04/18 02:26:12;;;;;;;22.40;14.02;;;6.60;97.30;;;;;;4943121;29;20413;-90
2022/04/18 02:28:38;;;;;;;21.10;13.35;;;6.60;97.30;;;;;;4917634;29;20401;-90
2022/04/18 02:31:04;;;;;;;20.45;14.38;;;6.60;97.90;;;;;;4933787;29;20050;-90
2022/04/18 02:33:30;;;;;;;19.05;12.55;;;6.60;98.00;;;;;;4935037;29;20071;-91
2022/04/18 02:35:55;;;;;;;20.30;13.77;;;6.60;98.20;;;;;;4934058;29;20086;-90
2022/04/18 02:38:21;;;;;;;20.58;14.13;;;6.50;98.70;;;;;;4935260;29;20504;-91
2022/04/18 02:40:47;;;;;;;21.27;13.95;;;6.50;99.40;;;;;;4933570;29;20406;-90
2022/04/18 02:43:12;;;;;;;20.40;14.25;;;6.50;99.70;;;;;;4917241;29;20043;-91
2022/04/18 02:45:38;;;;;;;17.92;12.18;;;6.50;99.80;;;;;;4933617;29;20079;-91
2022/04/18 02:48:04;;;;;;;20.10;12.93;;;6.40;99.90;;;;;;4932841;29;20397;-91
2022/04/18 02:50:30;;;;;;;19.83;12.75;;;6.40;99.90;;;;;;4934289;29;20059;-91
2022/04/18 02:52:56;;;;;;;20.00;13.93;;;6.30;99.90;;;;;;4933116;29;20059;-91
2022/04/18 02:55:23;;;;;;;19.52;13.30;;;6.40;99.90;;;;;;4934486;29;20067;-90
2022/04/18 02:57:49;;;;;;;19.88;13.60;;;6.30;99.90;;;;;;4933042;29;20497;-91
2022/04/18 03:00:15;;;;;;;20.50;12.80;;;6.30;99.90;;;;;;4916654;29;20481;-90
2022/04/18 03:02:41;;;;;;;22.23;13.57;;;6.30;99.90;;;;;;4933607;29;20043;-91
2022/04/18 03:05:08;;;;;;;19.50;13.57;;;6.30;99.90;;;;;;4932387;29;20050;-90
2022/04/18 03:07:34;;;;;;;18.60;12.32;;;6.20;99.90;;;;;;4932692;29;20083;-91
2022/04/18 03:10:00;;;;;;;19.65;13.75;;;6.20;99.90;;;;;;4938063;29;20083;-91
2022/04/18 03:12:26;;;;;;;17.55;13.15;;;6.20;99.90;;;;;;4938733;29;20043;-90
2022/04/18 03:14:52;;;;;;;18.65;12.38;;;6.20;99.90;;;;;;4916196;29;20056;-91
2022/04/18 03:17:18;;;;;;;19.95;14.40;;;6.10;99.90;;;;;;4897630;29;20515;-91
2022/04/18 03:19:44;;;;;;;19.27;13.00;;;6.10;99.90;;;;;;4914277;29;20498;-91
2022/04/18 03:22:09;;;;;;;19.52;12.77;;;6.10;99.90;;;;;;4915374;29;20047;-91
2022/04/18 03:24:35;;;;;;;18.58;13.30;;;6.10;99.90;;;;;;4914929;29;20048;-91
2022/04/18 03:27:02;;;;;;;18.98;14.00;;;6.10;99.90;;;;;;4918954;29;20044;-91
2022/04/18 03:29:27;;;;;;;20.27;13.07;;;6.10;99.90;;;;;;4916108;29;20316;-91
2022/04/18 03:31:54;;;;;;;17.42;12.90;;;6.10;99.90;;;;;;4913809;29;20047;-91
2022/04/18 03:34:20;;;;;;;17.13;12.50;;;6.10;99.90;;;;;;4914031;29;20055;-91
2022/04/18 03:42:14;;;;;;;19.80;12.95;;;5.90;99.90;;;;;;4913776;29;20056;-91
2022/04/18 03:44:43;;;;;;;20.40;12.75;;;6.00;99.90;;;;;;4922899;29;20408;-91
2022/04/18 03:47:10;;;;;;;18.70;13.70;;;6.00;99.90;;;;;;4933551;29;20083;-91
2022/04/18 03:49:35;;;;;;;21.30;12.57;;;6.00;99.90;;;;;;4918582;29;20054;-90
2022/04/18 03:52:01;;;;;;;20.80;12.55;;;5.90;99.90;;;;;;4913670;29;20503;-91
2022/04/18 03:54:26;;;;;;;19.25;12.40;;;5.90;99.90;;;;;;4913920;29;20119;-90
2022/04/18 03:56:52;;;;;;;19.45;12.48;;;5.90;99.90;;;;;;4913688;29;20092;-91
2022/04/18 03:59:18;;;;;;;18.30;12.43;;;5.90;99.90;;;;;;4913249;29;20055;-90
2022/04/18 04:01:43;;;;;;;19.05;13.10;;;5.90;99.90;;;;;;4906720;29;20401;-90
2022/04/18 04:04:09;;;;;;;19.17;12.93;;;5.90;99.90;;;;;;4923201;29;20056;-91
2022/04/18 04:06:34;;;;;;;18.08;12.90;;;5.90;99.90;;;;;;4914142;29;20036;-90
2022/04/18 04:09:00;;;;;;;19.75;12.98;;;5.90;99.90;;;;;;4911454;29;20051;-91
2022/04/18 04:11:26;;;;;;;18.02;13.02;;;5.90;99.90;;;;;;4911918;29;20156;-91
2022/04/18 04:13:51;;;;;;;17.63;12.93;;;5.80;99.90;;;;;;4903667;29;20130;-90
2022/04/18 04:16:18;;;;;;;20.02;13.18;;;5.80;99.90;;;;;;4931575;29;20047;-90
2022/04/18 04:18:44;;;;;;;19.65;12.00;;;5.80;99.90;;;;;;4927082;29;20048;-91
2022/04/18 04:21:09;;;;;;;17.52;12.57;;;5.80;99.90;;;;;;4944721;29;20031;-91
2022/04/18 04:23:35;;;;;;;18.80;12.93;;;5.70;99.90;;;;;;4936225;29;20043;-91
2022/04/18 04:26:00;;;;;;;17.48;12.05;;;5.80;99.90;;;;;;4932543;29;20435;-91
2022/04/18 04:28:26;;;;;;;16.83;12.13;;;5.70;99.90;;;;;;4931406;29;20077;-95
2022/04/18 04:30:51;;;;;;;18.27;11.55;;;5.70;99.90;;;;;;4939040;29;20048;-91
2022/04/18 04:33:17;;;;;;;16.15;11.50;;;5.70;99.90;;;;;;4916939;29;20052;-89
2022/04/18 04:35:43;;;;;;;18.15;11.38;;;5.70;99.90;;;;;;4930942;29;20178;-89
2022/04/18 04:38:08;;;;;;;19.95;12.63;;;5.70;99.90;;;;;;4915150;29;20048;-89
2022/04/18 04:40:34;;;;;;;18.52;12.43;;;5.70;99.90;;;;;;4921896;29;20048;-90
2022/04/18 04:42:59;;;;;;;19.67;11.55;;;5.70;99.90;;;;;;4929805;29;20035;-94
2022/04/18 04:45:25;;;;;;;17.42;11.63;;;5.70;99.90;;;;;;4935472;29;20098;-92
2022/04/18 04:47:50;;;;;;;16.98;11.65;;;5.70;99.90;;;;;;4916875;29;20138;-94
2022/04/18 04:50:16;;;;;;;19.45;11.73;;;5.70;99.90;;;;;;4933756;29;20048;-93
2022/04/18 04:52:41;;;;;;;16.77;11.35;;;5.80;99.90;;;;;;4945332;29;20159;-93
2022/04/18 04:55:08;;;;;;;18.23;12.25;;;5.80;99.90;;;;;;4954351;29;20064;-92
2022/04/18 04:57:34;;;;;;;20.45;12.52;;;5.80;99.90;;;;;;4916548;29;20039;-91
2022/04/18 05:00:00;;;;;;;19.38;11.23;;;5.80;99.90;;;;;;4934801;29;20121;-92
2022/04/18 05:02:26;;;;;;;15.88;11.05;;;5.90;99.90;;;;;;4933903;29;20040;-96
2022/04/18 05:04:51;;;;;;;19.15;12.68;;;5.90;99.90;;;;;;4926483;29;20148;-92
2022/04/18 05:07:17;;;;;;;18.75;12.77;;;5.90;99.90;;;;;;4940431;29;20051;-93
2022/04/18 05:09:43;;;;;;;17.48;12.30;;;6.00;99.90;;;;;;4932848;29;20142;-93
2022/04/18 05:12:09;;;;;;;20.10;12.18;;;6.00;99.90;;;;;;4934609;29;20048;-93
2022/04/18 05:14:34;;;;;;;18.38;11.32;;;6.00;99.90;;;;;;4935564;29;20059;-94
2022/04/18 05:17:02;;;;;;;16.55;10.75;;;6.10;99.90;;;;;;4934328;29;20408;-93
2022/04/18 05:19:27;;;;;;;17.42;11.68;;;6.10;99.90;;;;;;4931232;29;20056;-94
2022/04/18 05:21:53;;;;;;;19.15;13.07;;;6.20;99.90;;;;;;4937474;29;20043;-94
2022/04/18 05:24:19;;;;;;;15.98;11.52;;;6.20;99.90;;;;;;4936241;29;20055;-95
2022/04/18 05:26:46;;;;;;;16.70;12.02;;;6.30;99.90;;;;;;4921179;29;20071;-93
2022/04/18 05:29:12;;;;;;;17.77;12.07;;;6.40;99.90;;;;;;4918861;29;20050;-93
2022/04/18 05:31:37;;;;;;;16.35;11.88;;;6.40;99.90;;;;;;4938176;29;20099;-94
2022/04/18 05:34:03;;;;;;;16.55;11.70;;;6.50;99.90;;;;;;4946513;29;20043;-92
2022/04/18 05:36:29;;;;;;;16.35;11.60;;;6.60;99.90;;;;;;4935063;29;20079;-92
2022/04/18 05:38:55;;;;;;;17.92;12.27;;;6.60;99.90;;;;;;4935063;29;20509;-92
2022/04/18 05:41:21;;;;;;;16.70;11.07;;;6.60;99.90;;;;;;4936141;29;20071;-92
2022/04/18 05:43:49;;;;;;;16.75;11.88;;;6.70;99.90;;;;;;4916903;29;20493;-92
2022/04/18 05:46:15;;;;;;;17.83;11.95;;;6.80;99.90;;;;;;4935546;29;20055;-94
2022/04/18 05:48:41;;;;;;;19.23;11.77;;;6.90;99.90;;;;;;4933857;29;20387;-92
2022/04/18 05:51:07;;;;;;;18.50;13.15;;;6.90;99.90;;;;;;4932105;29;20044;-92
2022/04/18 05:53:32;;;;;;;17.55;11.85;;;7.00;99.90;;;;;;4932943;29;20055;-93
2022/04/18 05:55:58;;;;;;;16.30;12.27;;;7.10;99.90;;;;;;4933791;29;20054;-91
2022/04/18 05:58:23;;;;;;;15.38;12.23;;;7.10;99.90;;;;;;4917610;29;20126;-92
2022/04/18 06:00:49;;;;;;;16.65;12.05;;;7.20;99.90;;;;;;4918270;29;20102;-93
2022/04/18 06:03:15;;;;;;;16.02;11.93;;;7.30;99.90;;;;;;4933043;29;20052;-92
2022/04/18 06:05:41;;;;;;;16.63;14.10;;;7.40;99.90;;;;;;4935270;29;20424;-92
2022/04/18 06:08:07;;;;;;;17.00;13.90;;;7.50;99.90;;;;;;4918078;29;20098;-92
2022/04/18 06:10:33;;;;;;;16.20;10.75;;;7.60;99.90;;;;;;4936064;29;20465;-93
2022/04/18 06:12:59;;;;;;;18.63;12.20;;;7.70;99.90;;;;;;4917840;29;20131;-93
2022/04/18 06:15:25;;;;;;;17.38;12.77;;;7.70;99.90;;;;;;4942879;29;20378;-92
2022/04/18 06:17:50;;;;;;;16.25;14.18;;;7.80;99.90;;;;;;4942225;29;20127;-93
2022/04/18 06:20:16;;;;;;;15.98;12.43;;;8.00;99.90;;;;;;4932664;29;20103;-94
2022/04/18 06:22:42;;;;;;;18.33;12.77;;;8.10;99.90;;;;;;4933236;29;20039;-94
2022/04/18 06:25:07;;;;;;;17.05;12.88;;;8.20;99.90;;;;;;4930150;29;20053;-95
2022/04/18 06:27:33;;;;;;;20.63;13.85;;;8.30;99.90;;;;;;4929158;29;20055;-95
2022/04/18 06:29:59;;;;;;;18.67;12.90;;;8.40;99.90;;;;;;4931221;29;20043;-95
2022/04/18 06:32:25;;;;;;;16.15;13.82;;;8.50;99.90;;;;;;4933647;29;20104;-95
2022/04/18 06:34:50;;;;;;;16.60;13.77;;;8.70;99.90;;;;;;4917253;29;20048;-94
2022/04/18 06:37:16;;;;;;;17.95;14.43;;;8.80;99.90;;;;;;4922924;29;20481;-92
2022/04/18 06:39:43;;;;;;;16.85;14.13;;;8.90;99.90;;;;;;4911558;29;20043;-92
2022/04/18 06:42:09;;;;;;;18.00;12.85;;;9.00;99.90;;;;;;4913973;29;20063;-93
2022/04/18 06:44:34;;;;;;;17.63;14.27;;;9.00;99.90;;;;;;4932557;29;20485;-91
2022/04/18 06:47:00;;;;;;;15.75;13.95;;;9.10;99.90;;;;;;4924046;29;20055;-93
2022/04/18 06:49:25;;;;;;;17.30;14.15;;;9.30;99.70;;;;;;4931511;29;20055;-92
2022/04/18 06:51:51;;;;;;;17.60;13.82;;;9.40;99.20;;;;;;4911806;29;20066;-92
2022/04/18 06:54:16;;;;;;;17.10;14.07;;;9.40;98.60;;;;;;4918716;29;20390;-91
2022/04/18 06:57:00;;;;;;;18.55;14.02;;;9.60;98.70;;;;;;4896671;29;20378;-91
2022/04/18 06:59:27;;;;;;;16.50;13.93;;;9.60;98.40;;;;;;4929913;29;20052;-93
2022/04/18 07:01:54;;;;;;;15.18;13.45;;;9.80;98.20;;;;;;4938966;29;20043;-92
2022/04/18 07:04:19;;;;;;;15.90;13.25;;;9.80;97.90;;;;;;4933160;29;20044;-94
2022/04/18 07:06:45;;;;;;;16.23;13.75;;;9.90;97.10;;;;;;4945342;29;20044;-93
2022/04/18 07:09:10;;;;;;;17.08;13.20;;;10.00;95.30;;;;;;4932984;29;20387;-93
2022/04/18 07:11:36;;;;;;;15.85;12.95;;;10.10;95.20;;;;;;4914584;29;20572;-93
2022/04/18 07:14:02;;;;;;;15.13;13.18;;;10.20;95.00;;;;;;4914456;29;20055;-92
2022/04/18 07:16:31;;;;;;;15.27;12.05;;;10.20;94.70;;;;;;4932569;29;20083;-92
2022/04/18 07:19:00;;;;;;;16.27;12.10;;;10.40;93.20;;;;;;4918377;29;20044;-92
2022/04/18 07:21:26;;;;;;;15.05;12.10;;;10.50;92.80;;;;;;4933212;29;20044;-91
2022/04/18 07:23:52;;;;;;;15.73;12.68;;;10.60;91.80;;;;;;4931604;29;20524;-93
2022/04/18 07:26:19;;;;;;;14.45;12.38;;;10.70;90.60;;;;;;4932638;29;20131;-92
2022/04/18 07:28:45;;;;;;;15.00;11.93;;;10.80;90.30;;;;;;4930621;29;20079;-92
2022/04/18 07:31:11;;;;;;;14.95;11.95;;;10.90;90.00;;;;;;4933402;29;20092;-91
2022/04/18 07:33:36;;;;;;;15.00;11.52;;;11.00;89.80;;;;;;4932421;29;20405;-90
2022/04/18 07:36:03;;;;;;;13.13;10.80;;;11.10;85.30;;;;;;4932293;29;20112;-92
2022/04/18 07:41:14;;;;;;;14.70;10.95;;;11.30;85.40;;;;;;4938796;29;20111;-91
2022/04/18 07:43:40;;;;;;;14.45;10.98;;;11.30;82.50;;;;;;4939607;29;20079;-92
2022/04/18 07:46:05;;;;;;;14.13;10.90;;;11.40;80.30;;;;;;4950988;29;20212;-93
2022/04/18 07:48:31;;;;;;;13.32;10.90;;;11.50;80.70;;;;;;4949754;28;20067;-92
2022/04/18 07:53:42;;;;;;;14.35;10.65;;;11.70;78.00;;;;;;4932753;29;20043;-91
2022/04/18 07:56:08;;;;;;;14.10;10.32;;;11.80;75.80;;;;;;4931340;29;20066;-91
2022/04/18 07:58:34;;;;;;;13.55;10.40;;;11.90;75.00;;;;;;4913319;29;20114;-88
2022/04/18 08:00:59;;;;;;;14.07;10.45;;;12.00;73.60;;;;;;4930237;29;20127;-88
2022/04/18 08:03:25;;;;;;;15.10;10.85;;;12.00;72.70;;;;;;4930743;29;20063;-88
2022/04/18 08:05:51;;;;;;;13.13;10.32;;;12.10;72.10;;;;;;4914868;29;20059;-93
2022/04/18 08:08:16;;;;;;;13.55;10.98;;;12.10;71.20;;;;;;4914699;29;20082;-90
2022/04/18 08:10:42;;;;;;;14.98;11.05;;;12.20;71.70;;;;;;4923103;29;20167;-89
2022/04/18 08:13:07;;;;;;;12.95;10.02;;;12.30;72.10;;;;;;4933749;29;20051;-89
2022/04/18 08:15:33;;;;;;;15.80;11.52;;;12.40;71.00;;;;;;4913740;29;20047;-89
2022/04/18 08:17:59;;;;;;;14.70;10.90;;;12.50;70.40;;;;;;4914516;29;20052;-89
2022/04/18 08:20:25;;;;;;;13.90;11.00;;;12.60;69.90;;;;;;4930979;29;20048;-87
2022/04/18 08:22:51;;;;;;;13.48;10.77;;;12.60;69.50;;;;;;4928101;29;20082;-88
2022/04/18 08:25:16;;;;;;;14.80;10.35;;;12.70;69.40;;;;;;4932708;29;20087;-90
2022/04/18 08:27:42;;;;;;;13.02;10.10;;;12.80;69.50;;;;;;4938686;29;20578;-90
2022/04/18 08:30:08;;;;;;;13.43;9.85;;;12.80;69.70;;;;;;4912086;29;20044;-90
2022/04/18 08:32:37;;;;;;;13.70;10.40;;;12.90;68.30;;;;;;4907787;29;20082;-89
2022/04/18 08:35:04;;;;;;;14.98;10.68;;;13.00;68.20;;;;;;4930698;29;20075;-90
2022/04/18 08:37:29;;;;;;;14.15;10.55;;;13.10;68.90;;;;;;4914352;29;20040;-87
2022/04/18 08:39:55;;;;;;;12.02;9.98;;;13.20;68.90;;;;;;4912038;29;20382;-91
2022/04/18 08:42:22;;;;;;;13.55;10.90;;;13.30;68.40;;;;;;4930711;29;20104;-89
2022/04/18 08:44:50;;;;;;;14.00;9.90;;;13.40;68.60;;;;;;4910935;29;20052;-92
2022/04/18 08:52:43;;;;;;;12.48;10.18;;;13.50;66.60;;;;;;4928774;29;20048;-90
2022/04/18 08:52:50;;;;;;;12.30;9.68;;;13.60;67.30;;;;;;4931991;29;20481;-91
2022/04/18 08:55:20;;;;;;;14.93;10.50;;;13.70;67.00;;;;;;4931610;29;20417;-92
2022/04/18 08:57:45;;;;;;;13.00;9.27;;;13.80;67.30;;;;;;4936147;29;20035;-91
2022/04/18 09:00:12;;;;;;;12.48;9.13;;;13.90;67.70;;;;;;4936306;29;20055;-92
2022/04/18 09:02:38;;;;;;;13.48;9.40;;;14.00;67.20;;;;;;4935867;29;20059;-92
2022/04/18 09:05:08;;;;;;;11.73;8.98;;;14.10;66.90;;;;;;4935518;29;20052;-92
2022/04/18 09:07:34;;;;;;;12.10;9.20;;;14.20;66.10;;;;;;4919378;29;20400;-92
2022/04/18 09:09:59;;;;;;;13.57;9.43;;;14.30;65.60;;;;;;4935002;29;20126;-92
2022/04/18 09:12:29;;;;;;;13.90;9.30;;;14.40;65.90;;;;;;4936710;29;20401;-92
2022/04/18 09:14:55;;;;;;;12.07;8.88;;;14.50;65.40;;;;;;4935552;29;20180;-92
2022/04/18 09:17:34;;;;;;;13.48;9.07;;;14.60;65.10;;;;;;4935774;29;20456;-92
2022/04/18 09:20:13;;;;;;;12.80;9.00;;;14.70;64.50;;;;;;4933697;29;20436;-91
2022/04/18 09:22:44;;;;;;;11.80;8.70;;;14.80;63.60;;;;;;4934242;29;20207;-92
2022/04/18 09:25:20;;;;;;;12.85;8.88;;;14.80;63.80;;;;;;4933569;29;20046;-91
2022/04/18 09:27:49;;;;;;;12.40;9.27;;;14.90;63.70;;;;;;4935703;29;20040;-90
2022/04/18 09:30:17;;;;;;;12.90;9.48;;;15.00;63.50;;;;;;4919692;29;20051;-91
2022/04/18 09:32:59;;;;;;;12.52;8.80;;;15.10;63.00;;;;;;4919545;29;20047;-92
2022/04/18 09:35:25;;;;;;;12.88;9.15;;;15.10;63.00;;;;;;4937928;29;20067;-92
2022/04/18 09:37:53;;;;;;;12.80;9.02;;;15.20;63.00;;;;;;4934665;29;20047;-92
2022/04/18 09:40:23;;;;;;;11.38;9.07;;;15.20;62.70;;;;;;4935659;29;20044;-91
2022/04/18 09:42:51;;;;;;;13.80;9.10;;;15.30;61.40;;;;;;4935380;29;20047;-92
2022/04/18 09:45:17;;;;;;;15.30;9.20;;;15.40;62.10;;;;;;4935012;29;20051;-91
2022/04/18 09:47:43;;;;;;;12.35;9.40;;;15.50;62.00;;;;;;4935380;29;20055;-92
2022/04/18 09:53:05;;;;;;;12.75;9.00;;;15.60;60.20;;;;;;4934390;29;20040;-92
2022/04/18 09:55:31;;;;;;;12.68;9.85;;;15.70;61.20;;;;;;4935224;29;20054;-92
2022/04/18 09:58:03;;;;;;;12.05;9.57;;;15.80;60.60;;;;;;4917793;29;20047;-93
2022/04/18 10:00:29;;;;;;;12.65;9.32;;;15.90;61.20;;;;;;4918622;29;20051;-93
2022/04/18 10:02:58;;;;;;;12.68;8.98;;;15.90;60.80;;;;;;4937486;29;20043;-92
2022/04/18 10:05:27;;;;;;;11.10;8.85;;;16.00;60.50;;;;;;4946952;29;20055;-91
2022/04/18 10:07:53;;;;;;;10.88;8.80;;;16.10;60.50;;;;;;4936045;29;20443;-92
2022/04/18 10:10:20;;;;;;;11.38;8.50;;;16.20;60.00;;;;;;4934913;29;20112;-91
2022/04/18 10:12:46;;;;;;;12.52;8.75;;;16.30;59.80;;;;;;4902109;29;20441;-92
2022/04/18 10:15:11;;;;;;;11.60;8.93;;;16.30;59.30;;;;;;4934360;29;20052;-92
2022/04/18 10:17:41;;;;;;;12.07;8.23;;;16.40;58.80;;;;;;4934998;29;20442;-91
2022/04/18 10:20:14;;;;;;;11.10;8.10;;;16.50;59.10;;;;;;4917614;29;20171;-92
2022/04/18 10:23:01;;;;;;;12.27;8.70;;;16.50;57.90;;;;;;4917762;29;20489;-93
2022/04/18 10:25:33;;;;;;;12.38;8.10;;;16.60;56.40;;;;;;4918672;29;20523;-90
2022/04/18 10:28:16;;;;;;;10.65;8.63;;;16.70;57.40;;;;;;4918492;29;20062;-92
2022/04/18 10:30:47;;;;;;;10.32;7.80;;;16.80;58.20;;;;;;4945174;29;20044;-92
2022/04/18 10:33:14;;;;;;;9.95;7.53;;;16.90;57.40;;;;;;4930250;29;20050;-93
2022/04/18 10:35:52;;;;;;;11.07;8.13;;;17.00;56.90;;;;;;4938810;29;20054;-93
2022/04/18 10:38:20;;;;;;;10.85;7.40;;;17.10;54.80;;;;;;4954747;29;20047;-93
2022/04/18 10:40:45;;;;;;;12.15;6.82;;;17.10;54.70;;;;;;4950287;29;20056;-94
2022/04/18 10:43:14;;;;;;;11.00;6.85;;;17.20;54.90;;;;;;4936396;29;20054;-92
2022/04/18 10:45:40;;;;;;;9.65;6.40;;;17.40;53.70;;;;;;4916799;29;20055;-93
2022/04/18 10:48:08;;;;;;;8.60;5.53;;;17.40;52.90;;;;;;4933270;29;20044;-92
2022/04/18 10:50:40;;;;;;;9.70;6.57;;;17.50;52.50;;;;;;4934857;29;20406;-92
2022/04/18 10:53:11;;;;;;;8.98;6.30;;;17.50;51.00;;;;;;4935201;29;20047;-93
2022/04/18 10:55:39;;;;;;;9.07;5.45;;;17.50;51.10;;;;;;4935484;29;20043;-94
2022/04/18 10:58:16;;;;;;;8.25;5.18;;;17.60;49.50;;;;;;4933945;29;20046;-92
2022/04/18 11:00:49;;;;;;;8.32;4.90;;;17.60;49.60;;;;;;4917016;29;20099;-93
2022/04/18 11:03:37;;;;;;;7.97;4.68;;;17.70;47.90;;;;;;4934105;29;20054;-92
2022/04/18 11:06:23;;;;;;;7.20;3.55;;;17.60;47.60;;;;;;4933596;29;20405;-92
2022/04/18 11:09:06;;;;;;;6.70;3.35;;;17.70;47.90;;;;;;4894101;29;20144;-93
2022/04/18 11:11:43;;;;;;;7.47;4.30;;;17.80;46.00;;;;;;4915256;29;20095;-92
2022/04/18 11:14:21;;;;;;;8.65;5.28;;;17.90;47.50;;;;;;4897968;29;20063;-92
2022/04/18 11:16:48;;;;;;;7.78;4.50;;;17.90;46.20;;;;;;4914404;29;20059;-92
2022/04/18 11:19:14;;;;;;;7.75;4.60;;;18.00;47.10;;;;;;4914931;29;20040;-89
2022/04/18 11:21:58;;;;;;;9.00;5.18;;;18.10;47.00;;;;;;4919150;29;20043;-92
2022/04/18 11:24:40;;;;;;;8.30;4.70;;;18.20;46.70;;;;;;4915311;29;20412;-93
2022/04/18 11:27:22;;;;;;;8.50;4.78;;;18.20;45.20;;;;;;4896994;29;20489;-92
2022/04/18 11:29:55;;;;;;;8.98;5.43;;;18.30;46.70;;;;;;4914962;29;20043;-94
2022/04/18 11:32:29;;;;;;;9.15;5.38;;;18.40;46.30;;;;;;4882883;29;20040;-93
2022/04/18 11:34:57;;;;;;;8.75;5.65;;;18.40;44.70;;;;;;4897484;29;20048;-91
2022/04/18 11:37:34;;;;;;;9.25;5.45;;;18.40;45.40;;;;;;4897488;29;20530;-92
2022/04/18 11:40:03;;;;;;;8.27;5.20;;;18.40;44.10;;;;;;4922342;29;20440;-91
2022/04/18 11:42:30;;;;;;;8.48;5.00;;;18.50;45.30;;;;;;4933337;29;20086;-92
2022/04/18 11:44:58;;;;;;;8.50;5.20;;;18.50;46.00;;;;;;4932483;29;20548;-92
2022/04/18 11:47:29;;;;;;;8.60;5.15;;;18.50;45.50;;;;;;4933325;29;20055;-92
2022/04/18 11:50:01;;;;;;;7.55;4.97;;;18.60;46.30;;;;;;4932733;29;20052;-94
2022/04/18 11:52:38;;;;;;;8.02;4.78;;;18.60;45.00;;;;;;4933677;29;20103;-93
2022/04/18 11:55:07;;;;;;;7.85;4.70;;;18.60;43.80;;;;;;4933256;29;20472;-92
2022/04/18 11:57:37;;;;;;;11.73;5.53;;;18.60;43.80;;;;;;4916937;29;20051;-91
2022/04/18 12:00:09;;;;;;;8.10;5.32;;;18.60;45.40;;;;;;4922084;29;20055;-95
2022/04/18 12:08:07;;;;;;;10.05;6.35;;;18.80;45.70;;;;;;4932425;29;20044;-93
2022/04/18 12:10:35;;;;;;;9.77;6.50;;;18.80;45.10;;;;;;4932559;29;20091;-92
2022/04/18 12:13:06;;;;;;;10.15;6.38;;;18.80;44.40;;;;;;4930303;29;20046;-91
2022/04/18 12:15:32;;;;;;;;;;;18.80;45.00;;;;;;4914901;29;20502;-93
2022/04/18 12:18:06;;;;;;;8.63;5.35;;;18.70;41.30;;;;;;4896333;29;19927;-94
2022/04/18 12:20:31;;;;;;;9.40;6.40;;;18.70;45.00;;;;;;4897161;29;20074;-92
2022/04/18 12:23:00;;;;;;;9.02;6.05;;;18.70;44.70;;;;;;4895847;29;20055;-92
2022/04/18 12:25:31;;;;;;;8.85;6.45;;;18.70;45.00;;;;;;4896562;29;20051;-92
2022/04/18 12:27:57;;;;;;;;;;;18.70;45.10;;;;;;4912759;29;20044;-93
2022/04/18 12:30:23;;;;;;;9.32;5.97;;;18.60;41.70;;;;;;4913835;29;19946;-92
2022/04/18 12:32:49;;;;;;;9.70;5.78;;;18.60;45.10;;;;;;4913240;29;20048;-92
2022/04/18 12:35:36;;;;;;;9.00;6.18;;;18.70;45.20;;;;;;4896628;29;20047;-92
2022/04/18 12:38:03;;;;;;;10.82;5.75;;;18.70;44.30;;;;;;4893716;29;20470;-91
2022/04/18 12:40:36;;;;;;;10.38;6.88;;;18.80;44.70;;;;;;4894696;29;20383;-92
2022/04/18 12:43:20;;;;;;;9.43;6.60;;;18.80;44.70;;;;;;4894488;29;20370;-92
2022/04/18 12:45:50;;;;;;;9.15;6.40;;;18.90;43.00;;;;;;4894362;29;20048;-92
2022/04/18 12:48:30;;;;;;;9.35;6.03;;;18.90;43.30;;;;;;4894352;29;20132;-93
2022/04/18 12:50:57;;;;;;;9.65;6.43;;;18.90;44.00;;;;;;4901419;29;20130;-91
2022/04/18 12:53:50;;;;;;;11.23;6.80;;;18.80;43.00;;;;;;4913942;29;20402;-92
2022/04/18 12:56:22;;;;;;;8.82;5.82;;;18.80;43.60;;;;;;4914228;29;20338;-92
2022/04/18 12:58:49;;;;;;;9.07;6.30;;;18.80;43.90;;;;;;4913379;29;20123;-94
2022/04/18 13:01:22;;;;;;;9.20;6.05;;;18.90;44.00;;;;;;4913979;29;20048;-94
2022/04/18 13:03:49;;;;;;;8.93;5.90;;;18.90;42.90;;;;;;4913712;29;20040;-93
2022/04/18 13:06:24;;;;;;;8.65;6.03;;;18.90;44.20;;;;;;4913254;29;20059;-91
2022/04/18 13:08:54;;;;;;;10.10;6.70;;;18.90;44.60;;;;;;4913310;29;20048;-93